sensor_id;sensor_type;location;lat;lon;timestamp;temperature;humidity
75489;HTU21D;64069;46.396;48.102;2024-02-23T00:00:09;-8.24;86.32
75489;HTU21D;64069;46.396;48.102;2024-02-23T00:02:36;-8.24;86.21
75489;HTU21D;64069;46.396;48.102;2024-02-23T00:05:02;-8.25;86.29
75489;HTU21D;64069;46.396;48.102;2024-02-23T00:07:28;-8.24;86.37
75489;HTU21D;64069;46.396;48.102;2024-02-23T00:09:54;-8.23;86.29
75489;HTU21D;64069;46.396;48.102;2024-02-23T00:12:20;-8.23;86.33
75489;HTU21D;64069;46.396;48.102;2024-02-23T00:14:46;-8.23;86.36
75489;HTU21D;64069;46.396;48.102;2024-02-23T00:17:12;-8.23;86.29
75489;HTU21D;64069;46.396;48.102;2024-02-23T00:19:38;-8.22;86.32
75489;HTU21D;64069;46.396;48.102;2024-02-23T00:22:04;-8.22;86.38
75489;HTU21D;64069;46.396;48.102;2024-02-23T00:24:30;-8.22;86.24
75489;HTU21D;64069;46.396;48.102;2024-02-23T00:26:56;-8.21;86.48
75489;HTU21D;64069;46.396;48.102;2024-02-23T00:29:23;-8.22;86.35
75489;HTU21D;64069;46.396;48.102;2024-02-23T00:31:49;-8.21;86.33
75489;HTU21D;64069;46.396;48.102;2024-02-23T00:34:15;-8.21;86.35
75489;HTU21D;64069;46.396;48.102;2024-02-23T00:36:42;-8.22;86.35
75489;HTU21D;64069;46.396;48.102;2024-02-23T00:39:10;-8.22;86.31
75489;HTU21D;64069;46.396;48.102;2024-02-23T00:41:36;-8.22;86.22
75489;HTU21D;64069;46.396;48.102;2024-02-23T00:44:03;-8.24;86.28
75489;HTU21D;64069;46.396;48.102;2024-02-23T00:46:29;-8.23;86.29
75489;HTU21D;64069;46.396;48.102;2024-02-23T00:48:55;-8.22;86.24
75489;HTU21D;64069;46.396;48.102;2024-02-23T00:51:21;-8.21;86.44
75489;HTU21D;64069;46.396;48.102;2024-02-23T00:53:47;-8.20;86.25
75489;HTU21D;64069;46.396;48.102;2024-02-23T00:56:13;-8.19;86.30
75489;HTU21D;64069;46.396;48.102;2024-02-23T00:58:39;-8.18;86.24
75489;HTU21D;64069;46.396;48.102;2024-02-23T01:01:05;-8.18;86.15
75489;HTU21D;64069;46.396;48.102;2024-02-23T01:03:31;-8.15;86.22
75489;HTU21D;64069;46.396;48.102;2024-02-23T01:05:58;-8.14;86.11
75489;HTU21D;64069;46.396;48.102;2024-02-23T01:08:24;-8.13;86.06
75489;HTU21D;64069;46.396;48.102;2024-02-23T01:10:50;-8.11;86.02
75489;HTU21D;64069;46.396;48.102;2024-02-23T01:13:16;-8.11;86.03
75489;HTU21D;64069;46.396;48.102;2024-02-23T01:15:42;-8.10;86.04
75489;HTU21D;64069;46.396;48.102;2024-02-23T01:18:08;-8.10;85.93
75489;HTU21D;64069;46.396;48.102;2024-02-23T01:20:34;-8.13;85.92
75489;HTU21D;64069;46.396;48.102;2024-02-23T01:23:01;-8.12;85.93
75489;HTU21D;64069;46.396;48.102;2024-02-23T01:25:26;-8.14;85.92
75489;HTU21D;64069;46.396;48.102;2024-02-23T01:27:52;-8.15;85.91
75489;HTU21D;64069;46.396;48.102;2024-02-23T01:30:18;-8.16;85.96
75489;HTU21D;64069;46.396;48.102;2024-02-23T01:32:45;-8.16;85.95
75489;HTU21D;64069;46.396;48.102;2024-02-23T01:35:11;-8.18;86.01
75489;HTU21D;64069;46.396;48.102;2024-02-23T01:37:37;-8.19;86.00
75489;HTU21D;64069;46.396;48.102;2024-02-23T01:40:04;-8.20;85.97
75489;HTU21D;64069;46.396;48.102;2024-02-23T01:42:30;-8.20;85.96
75489;HTU21D;64069;46.396;48.102;2024-02-23T01:44:56;-8.22;85.96
75489;HTU21D;64069;46.396;48.102;2024-02-23T01:47:25;-8.23;85.98
75489;HTU21D;64069;46.396;48.102;2024-02-23T01:49:52;-8.24;85.94
75489;HTU21D;64069;46.396;48.102;2024-02-23T01:52:18;-8.25;85.90
75489;HTU21D;64069;46.396;48.102;2024-02-23T01:54:44;-8.27;85.90
75489;HTU21D;64069;46.396;48.102;2024-02-23T01:57:11;-8.28;85.96
75489;HTU21D;64069;46.396;48.102;2024-02-23T01:59:38;-8.29;85.95
75489;HTU21D;64069;46.396;48.102;2024-02-23T02:02:05;-8.31;86.00
75489;HTU21D;64069;46.396;48.102;2024-02-23T02:04:31;-8.31;85.99
75489;HTU21D;64069;46.396;48.102;2024-02-23T02:06:59;-8.31;86.01
75489;HTU21D;64069;46.396;48.102;2024-02-23T02:09:25;-8.34;85.92
75489;HTU21D;64069;46.396;48.102;2024-02-23T02:11:52;-8.35;86.01
75489;HTU21D;64069;46.396;48.102;2024-02-23T02:14:18;-8.37;85.97
75489;HTU21D;64069;46.396;48.102;2024-02-23T02:16:44;-8.38;85.96
75489;HTU21D;64069;46.396;48.102;2024-02-23T02:19:11;-8.40;85.97
75489;HTU21D;64069;46.396;48.102;2024-02-23T02:21:37;-8.42;85.89
75489;HTU21D;64069;46.396;48.102;2024-02-23T02:24:04;-8.52;85.82
75489;HTU21D;64069;46.396;48.102;2024-02-23T02:26:31;-8.59;85.86
75489;HTU21D;64069;46.396;48.102;2024-02-23T02:28:57;-8.67;85.91
75489;HTU21D;64069;46.396;48.102;2024-02-23T02:31:23;-8.73;85.90
75489;HTU21D;64069;46.396;48.102;2024-02-23T02:33:49;-8.80;85.93
75489;HTU21D;64069;46.396;48.102;2024-02-23T02:36:15;-8.86;85.92
75489;HTU21D;64069;46.396;48.102;2024-02-23T02:38:41;-8.90;85.89
75489;HTU21D;64069;46.396;48.102;2024-02-23T02:41:08;-8.92;85.87
75489;HTU21D;64069;46.396;48.102;2024-02-23T02:43:34;-8.96;85.82
75489;HTU21D;64069;46.396;48.102;2024-02-23T02:46:00;-8.97;85.80
75489;HTU21D;64069;46.396;48.102;2024-02-23T02:48:26;-8.97;85.80
75489;HTU21D;64069;46.396;48.102;2024-02-23T02:50:52;-8.97;85.77
75489;HTU21D;64069;46.396;48.102;2024-02-23T02:53:18;-8.96;85.71
75489;HTU21D;64069;46.396;48.102;2024-02-23T02:55:44;-8.94;85.78
75489;HTU21D;64069;46.396;48.102;2024-02-23T02:58:13;-8.96;85.73
75489;HTU21D;64069;46.396;48.102;2024-02-23T03:00:40;-8.99;85.71
75489;HTU21D;64069;46.396;48.102;2024-02-23T03:03:06;-8.98;85.86
75489;HTU21D;64069;46.396;48.102;2024-02-23T03:05:32;-8.99;85.76
75489;HTU21D;64069;46.396;48.102;2024-02-23T03:07:58;-8.99;85.77
75489;HTU21D;64069;46.396;48.102;2024-02-23T03:10:24;-9.00;85.73
75489;HTU21D;64069;46.396;48.102;2024-02-23T03:12:50;-8.98;85.76
75489;HTU21D;64069;46.396;48.102;2024-02-23T03:15:16;-8.97;85.76
75489;HTU21D;64069;46.396;48.102;2024-02-23T03:17:42;-8.95;85.80
75489;HTU21D;64069;46.396;48.102;2024-02-23T03:20:08;-8.94;85.74
75489;HTU21D;64069;46.396;48.102;2024-02-23T03:22:37;-8.93;85.78
75489;HTU21D;64069;46.396;48.102;2024-02-23T03:25:04;-8.90;85.80
75489;HTU21D;64069;46.396;48.102;2024-02-23T03:27:39;-8.87;85.80
75489;HTU21D;64069;46.396;48.102;2024-02-23T03:30:06;-8.86;85.74
75489;HTU21D;64069;46.396;48.102;2024-02-23T03:32:34;-8.85;85.74
75489;HTU21D;64069;46.396;48.102;2024-02-23T03:35:05;-8.85;85.71
75489;HTU21D;64069;46.396;48.102;2024-02-23T03:37:32;-8.85;85.73
75489;HTU21D;64069;46.396;48.102;2024-02-23T03:39:58;-8.87;85.75
75489;HTU21D;64069;46.396;48.102;2024-02-23T03:42:25;-8.86;85.82
75489;HTU21D;64069;46.396;48.102;2024-02-23T03:44:52;-8.84;85.92
75489;HTU21D;64069;46.396;48.102;2024-02-23T03:47:18;-8.81;85.87
75489;HTU21D;64069;46.396;48.102;2024-02-23T03:49:44;-8.77;85.96
75489;HTU21D;64069;46.396;48.102;2024-02-23T03:52:10;-8.70;85.93
75489;HTU21D;64069;46.396;48.102;2024-02-23T03:54:36;-8.65;85.90
75489;HTU21D;64069;46.396;48.102;2024-02-23T03:57:02;-8.60;85.81
75489;HTU21D;64069;46.396;48.102;2024-02-23T03:59:29;-8.56;85.73
75489;HTU21D;64069;46.396;48.102;2024-02-23T04:01:55;-8.53;85.74
75489;HTU21D;64069;46.396;48.102;2024-02-23T04:04:21;-8.46;85.71
75489;HTU21D;64069;46.396;48.102;2024-02-23T04:06:48;-8.35;85.76
75489;HTU21D;64069;46.396;48.102;2024-02-23T04:09:13;-8.20;85.74
75489;HTU21D;64069;46.396;48.102;2024-02-23T04:11:39;-8.00;85.61
75489;HTU21D;64069;46.396;48.102;2024-02-23T04:14:05;-7.83;85.44
75489;HTU21D;64069;46.396;48.102;2024-02-23T04:16:31;-7.69;85.26
75489;HTU21D;64069;46.396;48.102;2024-02-23T04:18:57;-7.53;85.20
75489;HTU21D;64069;46.396;48.102;2024-02-23T04:21:25;-7.35;85.07
75489;HTU21D;64069;46.396;48.102;2024-02-23T04:23:51;-7.19;84.97
75489;HTU21D;64069;46.396;48.102;2024-02-23T04:26:17;-7.03;84.79
75489;HTU21D;64069;46.396;48.102;2024-02-23T04:28:43;-6.94;84.59
75489;HTU21D;64069;46.396;48.102;2024-02-23T04:31:09;-6.91;84.51
75489;HTU21D;64069;46.396;48.102;2024-02-23T04:33:36;-6.85;84.47
75489;HTU21D;64069;46.396;48.102;2024-02-23T04:36:03;-6.75;84.44
75489;HTU21D;64069;46.396;48.102;2024-02-23T04:38:31;-6.66;84.37
75489;HTU21D;64069;46.396;48.102;2024-02-23T04:40:58;-6.59;84.20
75489;HTU21D;64069;46.396;48.102;2024-02-23T04:43:25;-6.50;84.19
75489;HTU21D;64069;46.396;48.102;2024-02-23T04:45:51;-6.38;84.10
75489;HTU21D;64069;46.396;48.102;2024-02-23T04:48:17;-6.18;84.13
75489;HTU21D;64069;46.396;48.102;2024-02-23T04:50:43;-5.90;84.08
75489;HTU21D;64069;46.396;48.102;2024-02-23T04:53:09;-5.71;83.71
75489;HTU21D;64069;46.396;48.102;2024-02-23T04:55:35;-5.61;83.36
75489;HTU21D;64069;46.396;48.102;2024-02-23T04:58:01;-5.64;83.16
75489;HTU21D;64069;46.396;48.102;2024-02-23T05:00:27;-5.59;83.31
75489;HTU21D;64069;46.396;48.102;2024-02-23T05:03:01;-5.34;83.39
75489;HTU21D;64069;46.396;48.102;2024-02-23T05:05:30;-5.26;83.08
75489;HTU21D;64069;46.396;48.102;2024-02-23T05:07:57;-5.31;82.85
75489;HTU21D;64069;46.396;48.102;2024-02-23T05:10:23;-5.33;82.84
75489;HTU21D;64069;46.396;48.102;2024-02-23T05:12:49;-5.44;82.82
75489;HTU21D;64069;46.396;48.102;2024-02-23T05:15:15;-5.35;83.12
75489;HTU21D;64069;46.396;48.102;2024-02-23T05:17:42;-5.19;83.04
75489;HTU21D;64069;46.396;48.102;2024-02-23T05:20:08;-5.00;82.87
75489;HTU21D;64069;46.396;48.102;2024-02-23T05:22:39;-4.76;82.74
75489;HTU21D;64069;46.396;48.102;2024-02-23T05:25:05;-4.61;82.39
75489;HTU21D;64069;46.396;48.102;2024-02-23T05:27:31;-4.61;82.02
75489;HTU21D;64069;46.396;48.102;2024-02-23T05:29:58;-4.60;82.04
75489;HTU21D;64069;46.396;48.102;2024-02-23T05:32:24;-4.64;81.92
75489;HTU21D;64069;46.396;48.102;2024-02-23T05:34:50;-4.68;81.89
75489;HTU21D;64069;46.396;48.102;2024-02-23T05:37:18;-4.69;81.94
75489;HTU21D;64069;46.396;48.102;2024-02-23T05:39:44;-4.60;82.01
75489;HTU21D;64069;46.396;48.102;2024-02-23T05:42:12;-4.36;82.07
75489;HTU21D;64069;46.396;48.102;2024-02-23T05:44:39;-4.26;81.56
75489;HTU21D;64069;46.396;48.102;2024-02-23T05:47:05;-4.15;81.39
75489;HTU21D;64069;46.396;48.102;2024-02-23T05:49:31;-4.11;81.05
75489;HTU21D;64069;46.396;48.102;2024-02-23T05:51:57;-4.08;80.98
75489;HTU21D;64069;46.396;48.102;2024-02-23T05:54:23;-4.00;81.01
75489;HTU21D;64069;46.396;48.102;2024-02-23T05:56:49;-3.92;80.85
75489;HTU21D;64069;46.396;48.102;2024-02-23T05:59:15;-3.87;80.58
75489;HTU21D;64069;46.396;48.102;2024-02-23T06:01:41;-3.90;80.48
75489;HTU21D;64069;46.396;48.102;2024-02-23T06:04:07;-3.82;80.57
75489;HTU21D;64069;46.396;48.102;2024-02-23T06:06:33;-3.80;80.40
75489;HTU21D;64069;46.396;48.102;2024-02-23T06:08:59;-3.87;80.20
75489;HTU21D;64069;46.396;48.102;2024-02-23T06:11:26;-3.90;80.42
75489;HTU21D;64069;46.396;48.102;2024-02-23T06:13:52;-3.84;80.38
75489;HTU21D;64069;46.396;48.102;2024-02-23T06:16:18;-3.87;80.21
75489;HTU21D;64069;46.396;48.102;2024-02-23T06:18:44;-3.83;80.30
75489;HTU21D;64069;46.396;48.102;2024-02-23T06:21:17;-3.79;80.10
75489;HTU21D;64069;46.396;48.102;2024-02-23T06:23:44;-3.72;79.98
75489;HTU21D;64069;46.396;48.102;2024-02-23T06:26:10;-3.68;79.86
75489;HTU21D;64069;46.396;48.102;2024-02-23T06:28:37;-3.71;79.67
75489;HTU21D;64069;46.396;48.102;2024-02-23T06:31:05;-3.78;79.48
75489;HTU21D;64069;46.396;48.102;2024-02-23T06:33:32;-3.85;79.66
75489;HTU21D;64069;46.396;48.102;2024-02-23T06:35:58;-3.77;79.69
75489;HTU21D;64069;46.396;48.102;2024-02-23T06:38:24;-3.68;79.62
75489;HTU21D;64069;46.396;48.102;2024-02-23T06:40:51;-3.57;79.61
75489;HTU21D;64069;46.396;48.102;2024-02-23T06:43:18;-3.48;79.53
75489;HTU21D;64069;46.396;48.102;2024-02-23T06:45:44;-3.38;79.55
75489;HTU21D;64069;46.396;48.102;2024-02-23T06:48:10;-3.13;79.62
75489;HTU21D;64069;46.396;48.102;2024-02-23T06:50:36;-3.02;79.14
75489;HTU21D;64069;46.396;48.102;2024-02-23T06:53:20;-2.96;78.95
75489;HTU21D;64069;46.396;48.102;2024-02-23T06:55:46;-2.92;78.85
75489;HTU21D;64069;46.396;48.102;2024-02-23T06:58:12;-2.74;78.83
75489;HTU21D;64069;46.396;48.102;2024-02-23T07:00:40;-2.58;78.57
75489;HTU21D;64069;46.396;48.102;2024-02-23T07:03:06;-2.41;78.28
75489;HTU21D;64069;46.396;48.102;2024-02-23T07:05:32;-2.19;78.11
75489;HTU21D;64069;46.396;48.102;2024-02-23T07:07:58;-2.04;77.50
75489;HTU21D;64069;46.396;48.102;2024-02-23T07:10:24;-2.03;77.21
75489;HTU21D;64069;46.396;48.102;2024-02-23T07:12:51;-2.02;77.24
75489;HTU21D;64069;46.396;48.102;2024-02-23T07:15:22;-1.94;77.31
75489;HTU21D;64069;46.396;48.102;2024-02-23T07:17:48;-1.70;77.35
75489;HTU21D;64069;46.396;48.102;2024-02-23T07:20:14;-1.63;76.90
75489;HTU21D;64069;46.396;48.102;2024-02-23T07:22:44;-1.58;76.53
75489;HTU21D;64069;46.396;48.102;2024-02-23T07:25:10;-1.44;76.62
75489;HTU21D;64069;46.396;48.102;2024-02-23T07:27:36;-1.32;76.38
75489;HTU21D;64069;46.396;48.102;2024-02-23T07:30:03;-1.40;75.97
75489;HTU21D;64069;46.396;48.102;2024-02-23T07:32:30;-1.47;76.13
75489;HTU21D;64069;46.396;48.102;2024-02-23T07:34:56;-1.43;75.92
75489;HTU21D;64069;46.396;48.102;2024-02-23T07:37:22;-1.39;76.04
75489;HTU21D;64069;46.396;48.102;2024-02-23T07:39:48;-1.33;76.02
75489;HTU21D;64069;46.396;48.102;2024-02-23T07:42:14;-1.26;75.92
75489;HTU21D;64069;46.396;48.102;2024-02-23T07:44:44;-1.23;75.59
75489;HTU21D;64069;46.396;48.102;2024-02-23T07:47:11;-1.24;75.13
75489;HTU21D;64069;46.396;48.102;2024-02-23T07:49:37;-1.39;74.35
75489;HTU21D;64069;46.396;48.102;2024-02-23T07:52:04;-1.46;74.49
75489;HTU21D;64069;46.396;48.102;2024-02-23T07:54:30;-1.41;74.92
75489;HTU21D;64069;46.396;48.102;2024-02-23T07:56:56;-1.26;74.95
75489;HTU21D;64069;46.396;48.102;2024-02-23T07:59:23;-1.10;74.65
75489;HTU21D;64069;46.396;48.102;2024-02-23T08:01:49;-1.01;74.29
75489;HTU21D;64069;46.396;48.102;2024-02-23T08:04:15;-1.00;74.23
75489;HTU21D;64069;46.396;48.102;2024-02-23T08:06:41;-0.94;73.77
75489;HTU21D;64069;46.396;48.102;2024-02-23T08:09:08;-0.86;73.64
75489;HTU21D;64069;46.396;48.102;2024-02-23T08:11:35;-0.80;73.19
75489;HTU21D;64069;46.396;48.102;2024-02-23T08:14:01;-0.76;72.98
75489;HTU21D;64069;46.396;48.102;2024-02-23T08:16:28;-0.64;73.19
75489;HTU21D;64069;46.396;48.102;2024-02-23T08:18:55;-0.50;72.65
75489;HTU21D;64069;46.396;48.102;2024-02-23T08:21:21;-0.37;72.36
75489;HTU21D;64069;46.396;48.102;2024-02-23T08:23:47;-0.28;71.83
75489;HTU21D;64069;46.396;48.102;2024-02-23T08:26:13;-0.17;71.51
75489;HTU21D;64069;46.396;48.102;2024-02-23T08:28:39;-0.09;71.00
75489;HTU21D;64069;46.396;48.102;2024-02-23T08:31:05;0.05;70.42
75489;HTU21D;64069;46.396;48.102;2024-02-23T08:33:31;0.12;69.65
75489;HTU21D;64069;46.396;48.102;2024-02-23T08:35:57;0.20;69.51
75489;HTU21D;64069;46.396;48.102;2024-02-23T08:38:23;0.34;69.61
75489;HTU21D;64069;46.396;48.102;2024-02-23T08:40:49;0.43;69.04
75489;HTU21D;64069;46.396;48.102;2024-02-23T08:43:16;0.50;68.71
75489;HTU21D;64069;46.396;48.102;2024-02-23T08:45:42;0.60;68.51
75489;HTU21D;64069;46.396;48.102;2024-02-23T08:48:08;0.60;68.04
75489;HTU21D;64069;46.396;48.102;2024-02-23T08:50:34;0.58;67.55
75489;HTU21D;64069;46.396;48.102;2024-02-23T08:53:00;0.58;67.30
75489;HTU21D;64069;46.396;48.102;2024-02-23T08:55:26;0.58;66.91
75489;HTU21D;64069;46.396;48.102;2024-02-23T08:57:52;0.59;67.25
75489;HTU21D;64069;46.396;48.102;2024-02-23T09:00:18;0.72;67.65
75489;HTU21D;64069;46.396;48.102;2024-02-23T09:02:44;0.87;67.31
75489;HTU21D;64069;46.396;48.102;2024-02-23T09:05:10;0.89;66.64
75489;HTU21D;64069;46.396;48.102;2024-02-23T09:07:36;0.83;66.83
75489;HTU21D;64069;46.396;48.102;2024-02-23T09:10:02;0.88;66.67
75489;HTU21D;64069;46.396;48.102;2024-02-23T09:12:30;0.89;66.12
75489;HTU21D;64069;46.396;48.102;2024-02-23T09:14:56;0.86;66.52
75489;HTU21D;64069;46.396;48.102;2024-02-23T09:17:22;0.89;66.39
75489;HTU21D;64069;46.396;48.102;2024-02-23T09:19:49;0.96;66.33
75489;HTU21D;64069;46.396;48.102;2024-02-23T09:22:15;1.05;66.01
75489;HTU21D;64069;46.396;48.102;2024-02-23T09:24:41;1.09;65.81
75489;HTU21D;64069;46.396;48.102;2024-02-23T09:27:07;1.12;65.81
75489;HTU21D;64069;46.396;48.102;2024-02-23T09:29:34;1.19;65.21
75489;HTU21D;64069;46.396;48.102;2024-02-23T09:32:00;1.26;64.56
75489;HTU21D;64069;46.396;48.102;2024-02-23T09:34:27;1.35;64.53
75489;HTU21D;64069;46.396;48.102;2024-02-23T09:36:53;1.39;63.95
75489;HTU21D;64069;46.396;48.102;2024-02-23T09:39:19;1.43;63.82
75489;HTU21D;64069;46.396;48.102;2024-02-23T09:41:50;1.53;63.66
75489;HTU21D;64069;46.396;48.102;2024-02-23T09:44:18;1.56;63.63
75489;HTU21D;64069;46.396;48.102;2024-02-23T09:46:44;1.60;63.18
75489;HTU21D;64069;46.396;48.102;2024-02-23T09:49:11;1.57;62.59
75489;HTU21D;64069;46.396;48.102;2024-02-23T09:51:39;1.51;62.12
75489;HTU21D;64069;46.396;48.102;2024-02-23T09:54:05;1.56;62.28
75489;HTU21D;64069;46.396;48.102;2024-02-23T09:56:31;1.57;61.72
75489;HTU21D;64069;46.396;48.102;2024-02-23T09:59:02;1.53;61.38
75489;HTU21D;64069;46.396;48.102;2024-02-23T10:01:29;1.55;61.42
75489;HTU21D;64069;46.396;48.102;2024-02-23T10:04:00;1.60;61.28
75489;HTU21D;64069;46.396;48.102;2024-02-23T10:06:27;1.65;61.18
75489;HTU21D;64069;46.396;48.102;2024-02-23T10:08:53;1.65;60.65
75489;HTU21D;64069;46.396;48.102;2024-02-23T10:11:24;1.67;60.67
75489;HTU21D;64069;46.396;48.102;2024-02-23T10:13:51;1.71;60.93
75489;HTU21D;64069;46.396;48.102;2024-02-23T10:16:20;1.78;60.74
75489;HTU21D;64069;46.396;48.102;2024-02-23T10:18:47;1.83;60.30
75489;HTU21D;64069;46.396;48.102;2024-02-23T10:21:17;1.84;59.41
75489;HTU21D;64069;46.396;48.102;2024-02-23T10:23:47;1.88;59.57
75489;HTU21D;64069;46.396;48.102;2024-02-23T10:26:13;1.99;59.96
75489;HTU21D;64069;46.396;48.102;2024-02-23T10:28:45;2.00;59.35
75489;HTU21D;64069;46.396;48.102;2024-02-23T10:31:14;2.02;59.51
75489;HTU21D;64069;46.396;48.102;2024-02-23T10:33:59;2.10;59.26
75489;HTU21D;64069;46.396;48.102;2024-02-23T10:36:29;2.14;58.66
75489;HTU21D;64069;46.396;48.102;2024-02-23T10:39:00;2.13;58.59
75489;HTU21D;64069;46.396;48.102;2024-02-23T10:41:35;2.14;58.79
75489;HTU21D;64069;46.396;48.102;2024-02-23T10:44:01;2.11;58.72
75489;HTU21D;64069;46.396;48.102;2024-02-23T10:46:31;2.12;58.77
75489;HTU21D;64069;46.396;48.102;2024-02-23T10:48:58;2.14;58.49
75489;HTU21D;64069;46.396;48.102;2024-02-23T10:51:28;2.16;58.52
75489;HTU21D;64069;46.396;48.102;2024-02-23T10:53:55;2.12;57.72
75489;HTU21D;64069;46.396;48.102;2024-02-23T10:56:21;2.10;57.71
75489;HTU21D;64069;46.396;48.102;2024-02-23T10:58:51;2.11;58.15
75489;HTU21D;64069;46.396;48.102;2024-02-23T11:01:18;2.12;57.83
75489;HTU21D;64069;46.396;48.102;2024-02-23T11:03:45;2.13;56.85
75489;HTU21D;64069;46.396;48.102;2024-02-23T11:06:34;2.17;57.43
75489;HTU21D;64069;46.396;48.102;2024-02-23T11:09:07;2.14;57.26
75489;HTU21D;64069;46.396;48.102;2024-02-23T11:11:34;2.12;57.08
75489;HTU21D;64069;46.396;48.102;2024-02-23T11:14:03;2.12;57.27
75489;HTU21D;64069;46.396;48.102;2024-02-23T11:16:33;2.16;57.61
75489;HTU21D;64069;46.396;48.102;2024-02-23T11:19:09;2.21;57.15
75489;HTU21D;64069;46.396;48.102;2024-02-23T11:21:37;2.19;56.74
75489;HTU21D;64069;46.396;48.102;2024-02-23T11:24:05;2.23;57.07
75489;HTU21D;64069;46.396;48.102;2024-02-23T11:26:31;2.27;56.90
75489;HTU21D;64069;46.396;48.102;2024-02-23T11:28:59;2.26;55.96
75489;HTU21D;64069;46.396;48.102;2024-02-23T11:31:29;2.25;56.16
75489;HTU21D;64069;46.396;48.102;2024-02-23T11:33:57;2.26;56.64
75489;HTU21D;64069;46.396;48.102;2024-02-23T11:36:32;2.27;56.45
75489;HTU21D;64069;46.396;48.102;2024-02-23T11:39:00;2.20;56.65
75489;HTU21D;64069;46.396;48.102;2024-02-23T11:41:27;2.13;56.27
75489;HTU21D;64069;46.396;48.102;2024-02-23T11:43:54;2.12;56.67
75489;HTU21D;64069;46.396;48.102;2024-02-23T11:46:21;2.11;56.58
75489;HTU21D;64069;46.396;48.102;2024-02-23T11:48:48;2.05;56.32
75489;HTU21D;64069;46.396;48.102;2024-02-23T11:51:22;1.98;56.24
75489;HTU21D;64069;46.396;48.102;2024-02-23T11:53:50;1.98;56.38
75489;HTU21D;64069;46.396;48.102;2024-02-23T11:56:16;1.97;56.71
75489;HTU21D;64069;46.396;48.102;2024-02-23T11:58:43;1.96;56.39
75489;HTU21D;64069;46.396;48.102;2024-02-23T12:01:09;1.93;56.22
75489;HTU21D;64069;46.396;48.102;2024-02-23T12:03:35;1.91;56.64
75489;HTU21D;64069;46.396;48.102;2024-02-23T12:06:02;1.87;56.90
75489;HTU21D;64069;46.396;48.102;2024-02-23T12:08:30;1.86;56.89
75489;HTU21D;64069;46.396;48.102;2024-02-23T12:11:08;1.88;57.02
75489;HTU21D;64069;46.396;48.102;2024-02-23T12:13:35;1.88;56.96
75489;HTU21D;64069;46.396;48.102;2024-02-23T12:16:02;1.87;56.97
75489;HTU21D;64069;46.396;48.102;2024-02-23T12:18:28;1.88;56.64
75489;HTU21D;64069;46.396;48.102;2024-02-23T12:21:08;1.81;56.76
75489;HTU21D;64069;46.396;48.102;2024-02-23T12:23:45;1.78;56.75
75489;HTU21D;64069;46.396;48.102;2024-02-23T12:26:16;1.78;56.67
75489;HTU21D;64069;46.396;48.102;2024-02-23T12:28:42;1.78;56.47
75489;HTU21D;64069;46.396;48.102;2024-02-23T12:31:08;1.75;56.46
75489;HTU21D;64069;46.396;48.102;2024-02-23T12:33:53;1.70;56.55
75489;HTU21D;64069;46.396;48.102;2024-02-23T12:36:39;1.68;56.36
75489;HTU21D;64069;46.396;48.102;2024-02-23T12:39:05;1.67;56.61
75489;HTU21D;64069;46.396;48.102;2024-02-23T12:41:32;1.66;56.22
75489;HTU21D;64069;46.396;48.102;2024-02-23T12:43:58;1.61;56.13
75489;HTU21D;64069;46.396;48.102;2024-02-23T12:46:24;1.54;56.58
75489;HTU21D;64069;46.396;48.102;2024-02-23T12:48:51;1.51;56.52
75489;HTU21D;64069;46.396;48.102;2024-02-23T12:51:17;1.45;56.61
75489;HTU21D;64069;46.396;48.102;2024-02-23T12:53:44;1.42;56.82
75489;HTU21D;64069;46.396;48.102;2024-02-23T12:56:12;1.40;56.79
75489;HTU21D;64069;46.396;48.102;2024-02-23T12:58:40;1.39;56.82
75489;HTU21D;64069;46.396;48.102;2024-02-23T13:01:07;1.37;56.57
75489;HTU21D;64069;46.396;48.102;2024-02-23T13:03:34;1.33;56.70
75489;HTU21D;64069;46.396;48.102;2024-02-23T13:06:01;1.31;56.81
75489;HTU21D;64069;46.396;48.102;2024-02-23T13:08:28;1.26;57.10
75489;HTU21D;64069;46.396;48.102;2024-02-23T13:11:13;1.20;57.32
75489;HTU21D;64069;46.396;48.102;2024-02-23T13:13:39;1.12;56.85
75489;HTU21D;64069;46.396;48.102;2024-02-23T13:16:05;1.04;57.34
75489;HTU21D;64069;46.396;48.102;2024-02-23T13:18:32;0.96;57.49
75489;HTU21D;64069;46.396;48.102;2024-02-23T13:20:58;0.88;57.67
75489;HTU21D;64069;46.396;48.102;2024-02-23T13:23:24;0.79;57.79
75489;HTU21D;64069;46.396;48.102;2024-02-23T13:25:50;0.71;58.02
75489;HTU21D;64069;46.396;48.102;2024-02-23T13:28:16;0.65;58.16
75489;HTU21D;64069;46.396;48.102;2024-02-23T13:30:42;0.62;58.38
75489;HTU21D;64069;46.396;48.102;2024-02-23T13:33:10;0.54;58.54
75489;HTU21D;64069;46.396;48.102;2024-02-23T13:35:36;0.49;58.64
75489;HTU21D;64069;46.396;48.102;2024-02-23T13:38:03;0.44;58.78
75489;HTU21D;64069;46.396;48.102;2024-02-23T13:40:30;0.36;58.91
75489;HTU21D;64069;46.396;48.102;2024-02-23T13:42:56;0.28;59.15
75489;HTU21D;64069;46.396;48.102;2024-02-23T13:45:22;0.17;59.38
75489;HTU21D;64069;46.396;48.102;2024-02-23T13:50:23;-0.03;59.85
75489;HTU21D;64069;46.396;48.102;2024-02-23T13:52:49;-0.12;60.10
75489;HTU21D;64069;46.396;48.102;2024-02-23T13:55:15;-0.23;60.31
75489;HTU21D;64069;46.396;48.102;2024-02-23T13:57:41;-0.31;60.51
75489;HTU21D;64069;46.396;48.102;2024-02-23T14:00:08;-0.44;60.74
75489;HTU21D;64069;46.396;48.102;2024-02-23T14:02:38;-0.54;61.00
75489;HTU21D;64069;46.396;48.102;2024-02-23T14:05:07;-0.67;61.27
75489;HTU21D;64069;46.396;48.102;2024-02-23T14:07:34;-0.75;61.57
75489;HTU21D;64069;46.396;48.102;2024-02-23T14:10:01;-0.85;61.77
75489;HTU21D;64069;46.396;48.102;2024-02-23T14:12:29;-0.94;62.03
75489;HTU21D;64069;46.396;48.102;2024-02-23T14:14:55;-1.02;62.21
75489;HTU21D;64069;46.396;48.102;2024-02-23T14:17:22;-1.11;62.38
75489;HTU21D;64069;46.396;48.102;2024-02-23T14:19:47;-1.16;62.65
75489;HTU21D;64069;46.396;48.102;2024-02-23T14:22:14;-1.25;62.88
75489;HTU21D;64069;46.396;48.102;2024-02-23T14:24:40;-1.32;63.09
75489;HTU21D;64069;46.396;48.102;2024-02-23T14:27:06;-1.40;63.33
75489;HTU21D;64069;46.396;48.102;2024-02-23T14:29:33;-1.47;63.45
75489;HTU21D;64069;46.396;48.102;2024-02-23T14:31:59;-1.53;63.70
75489;HTU21D;64069;46.396;48.102;2024-02-23T14:34:26;-1.58;63.90
75489;HTU21D;64069;46.396;48.102;2024-02-23T14:36:53;-1.65;64.13
75489;HTU21D;64069;46.396;48.102;2024-02-23T14:39:19;-1.71;64.25
75489;HTU21D;64069;46.396;48.102;2024-02-23T14:41:46;-1.75;64.68
75489;HTU21D;64069;46.396;48.102;2024-02-23T14:44:14;-1.78;64.69
75489;HTU21D;64069;46.396;48.102;2024-02-23T14:46:40;-1.83;64.72
75489;HTU21D;64069;46.396;48.102;2024-02-23T14:49:06;-1.86;64.88
75489;HTU21D;64069;46.396;48.102;2024-02-23T14:51:33;-1.91;65.17
75489;HTU21D;64069;46.396;48.102;2024-02-23T14:54:00;-1.95;65.37
75489;HTU21D;64069;46.396;48.102;2024-02-23T14:56:28;-2.00;65.42
75489;HTU21D;64069;46.396;48.102;2024-02-23T14:58:54;-2.01;65.40
75489;HTU21D;64069;46.396;48.102;2024-02-23T15:01:20;-2.05;65.58
75489;HTU21D;64069;46.396;48.102;2024-02-23T15:03:46;-2.07;65.64
75489;HTU21D;64069;46.396;48.102;2024-02-23T15:06:13;-2.10;65.80
75489;HTU21D;64069;46.396;48.102;2024-02-23T15:08:39;-2.14;66.07